Atlantic Dawn — WDF7671 — position and weather

sailwx.info

Track history (hours):
 
Tides and Currents Weather Stations Pressure Air Temp Water Temp Dewpoint Dewpoint Depression Visibility Wind Speed Wind Dir Waves Ship Positions

Atlantic Dawn

Owner: Atlantic Dawn LLC, Gretna, LA. More information available from US FCC via Universal Licensing System and Coast Guard Vessel Documentation Center.

Last reported at 2017-Oct-23 05:10 UTC. Time now 2017-Oct-23 06:02 UTC.
Position N 39°23' W 074°25'.

Length 30 m; draft 3 m.

Type: Other ship. MMSI: 367486910.

Date/timePositionNaut miles runAvg speedWind from/ knotsBaromVisibWave heightAir tempDewpointWater temp
2017-Oct-23 05:10N 39°23' W 074°25'0 0.0
2017-Oct-23 04:54N 39°23' W 074°25'0 0.0
2017-Oct-23 04:16N 39°23' W 074°25'0 0.0
2017-Oct-23 04:00N 39°23' W 074°25'0 0.0
2017-Oct-23 03:30N 39°23' W 074°25'0 0.0
2017-Oct-23 03:00N 39°23' W 074°25'0 0.0
2017-Oct-23 02:30N 39°23' W 074°25'0 0.0
2017-Oct-23 02:00N 39°23' W 074°25'0 0.0
2017-Oct-23 01:29N 39°23' W 074°25'0 0.0
2017-Oct-23 01:00N 39°23' W 074°25'0 0.0
2017-Oct-23 00:30N 39°23' W 074°25'0 0.0
2017-Oct-23 00:00N 39°23' W 074°25'0 0.0
2017-Oct-22 23:30N 39°23' W 074°25'0 0.0
2017-Oct-22 23:00N 39°23' W 074°25'0 0.0
2017-Oct-22 22:30N 39°23' W 074°25'0 0.0
2017-Oct-22 21:59N 39°23' W 074°25'9 1.3
2017-Oct-22 15:16N 39°16' W 074°33'0 1.7
2017-Oct-22 15:00N 39°16' W 074°32'2 4.8
2017-Oct-22 14:30N 39°18' W 074°30'2 4.9
2017-Oct-22 14:00N 39°19' W 074°27'2 4.9
2017-Oct-22 13:30N 39°20' W 074°24'2 3.7
2017-Oct-22 13:00N 39°22' W 074°25'1 2.2
2017-Oct-22 12:30N 39°23' W 074°25'0 0.5
2017-Oct-22 12:00N 39°23' W 074°26'0 0.1
2017-Oct-22 11:30N 39°23' W 074°26'1 1.2
2017-Oct-22 11:00N 39°23' W 074°25'0 0.2
2017-Oct-22 10:30N 39°23' W 074°25'0 0.0
2017-Oct-22 10:00N 39°23' W 074°25'0 0.0
2017-Oct-22 09:30N 39°23' W 074°25'0 0.0
2017-Oct-22 09:00N 39°23' W 074°25'0 0.0
2017-Oct-22 08:30N 39°23' W 074°25'0 0.0
2017-Oct-22 08:00N 39°23' W 074°25'0 0.0
2017-Oct-22 07:30N 39°23' W 074°25'0 0.0
2017-Oct-22 07:00N 39°23' W 074°25'0 0.0
2017-Oct-22 06:31N 39°23' W 074°25'0 0.0
2017-Oct-22 06:00N 39°23' W 074°25'0 0.0
2017-Oct-22 05:31N 39°23' W 074°25'0 0.0
2017-Oct-22 05:00N 39°23' W 074°25'0 0.0
2017-Oct-22 04:30N 39°23' W 074°25'0 0.0
2017-Oct-22 04:00N 39°23' W 074°25'0 0.0
2017-Oct-22 03:30N 39°23' W 074°25'0 0.0
2017-Oct-22 03:00N 39°23' W 074°25'0 0.0
2017-Oct-22 02:30N 39°23' W 074°25'0 0.0
2017-Oct-22 02:00N 39°23' W 074°25'0 0.0
2017-Oct-22 01:30N 39°23' W 074°25'0 0.0
2017-Oct-22 01:00N 39°23' W 074°25'0 0.0
2017-Oct-22 00:30N 39°23' W 074°25'0 0.5
2017-Oct-22 00:00N 39°23' W 074°25'0 0.3
2017-Oct-21 23:08N 39°23' W 074°25'0 0.0
2017-Oct-21 22:59N 39°23' W 074°25'0 0.0
2017-Oct-21 22:22N 39°23' W 074°25'0 0.0
2017-Oct-21 21:58N 39°23' W 074°25'0 0.5
2017-Oct-21 21:30N 39°23' W 074°25'0 0.8
2017-Oct-21 20:56N 39°22' W 074°26'1 1.3
2017-Oct-21 20:25N 39°23' W 074°25'0 0.0
2017-Oct-21 20:00N 39°23' W 074°25'0 0.0
2017-Oct-21 16:36N 39°23' W 074°25'0 0.1
2017-Oct-21 16:29N 39°23' W 074°25'0 0.2
2017-Oct-21 15:55N 39°23' W 074°25'0 0.0
2017-Oct-21 15:30N 39°23' W 074°25'0 0.0
2017-Oct-21 15:00N 39°23' W 074°25'0 0.0
2017-Oct-21 14:00N 39°23' W 074°25'0 0.0
2017-Oct-21 13:30N 39°23' W 074°25'0 0.0
2017-Oct-21 12:59N 39°23' W 074°25'0 0.0
2017-Oct-21 12:25N 39°23' W 074°25'0 0.1
2017-Oct-21 12:00N 39°23' W 074°25'0 0.1
2017-Oct-21 11:22N 39°23' W 074°25'0 0.0
2017-Oct-21 11:00N 39°23' W 074°25'22 1.1
2017-Oct-20 14:24N 39°04' W 074°38'5 4.3
2017-Oct-20 13:16N 38°60' W 074°42'1 4.3
2017-Oct-20 12:59N 38°59' W 074°42'3 4.4
2017-Oct-20 12:24N 38°57' W 074°44'2 4.4
2017-Oct-20 12:00N 38°55' W 074°46'2 4.3
2017-Oct-20 11:30N 38°53' W 074°47'2 4.3
2017-Oct-20 11:00N 38°52' W 074°49'2 4.3
2017-Oct-20 10:30N 38°50' W 074°50'2 4.2
2017-Oct-20 10:00N 38°48' W 074°52'2 4.5
2017-Oct-20 09:30N 38°47' W 074°54'2 4.7
2017-Oct-20 09:00N 38°45' W 074°56'2 4.6
2017-Oct-20 08:30N 38°43' W 074°57'2 4.3
2017-Oct-20 08:00N 38°41' W 074°58'2 4.3
2017-Oct-20 07:29N 38°38' W 074°58'2 4.2
2017-Oct-20 07:00N 38°36' W 074°58'2 4.2
2017-Oct-20 06:30N 38°34' W 074°58'11 4.3
2017-Oct-20 03:55N 38°23' W 074°58'96 4.5
2017-Oct-19 06:38N 36°57' W 075°54'3 6.0
2017-Oct-19 06:06N 36°57' W 075°57'2 5.4
2017-Oct-19 05:41N 36°57' W 076°00'1 5.4
2017-Oct-19 05:30N 36°57' W 076°01'15 3.6
2017-Oct-19 01:22N 36°57' W 076°20'1 3.8
2017-Oct-19 00:59N 36°55' W 076°20'3 3.5
2017-Oct-19 00:08N 36°53' W 076°20'0 3.4
2017-Oct-19 00:01N 36°52' W 076°20'2 3.4
2017-Oct-18 23:30N 36°51' W 076°18'1 2.2
2017-Oct-18 23:00N 36°50' W 076°17'0 0.8
2017-Oct-18 22:30N 36°50' W 076°16'0 0.5
2017-Oct-18 22:00N 36°50' W 076°16'0 0.0
2017-Oct-18 21:30N 36°50' W 076°16'0 0.0
2017-Oct-18 21:00N 36°50' W 076°16'0 0.0
2017-Oct-18 20:30N 36°50' W 076°16'0 0.0
2017-Oct-18 20:01N 36°50' W 076°16'0 0.0
2017-Oct-18 19:30N 36°50' W 076°16'0 0.0
2017-Oct-18 19:01N 36°50' W 076°16'0 0.0
2017-Oct-18 18:30N 36°50' W 076°16'0 0.0
2017-Oct-18 18:01N 36°50' W 076°16'0 0.0
2017-Oct-18 17:30N 36°50' W 076°16'0 0.0
2017-Oct-18 17:00N 36°50' W 076°16'0 0.0
2017-Oct-18 16:30N 36°50' W 076°16'0 0.0
2017-Oct-18 15:57N 36°50' W 076°16'0 0.0
2017-Oct-18 15:21N 36°50' W 076°16'0 0.0
2017-Oct-18 15:00N 36°50' W 076°16'0 0.0
2017-Oct-18 13:58N 36°50' W 076°16'0 0.0
2017-Oct-18 13:26N 36°50' W 076°16'0 0.0
2017-Oct-18 12:59N 36°50' W 076°16'0 0.0
2017-Oct-18 12:29N 36°50' W 076°16'0 0.2
2017-Oct-18 11:43N 36°50' W 076°16'0 0.0
2017-Oct-18 11:24N 36°50' W 076°16'0 0.0
2017-Oct-18 10:58N 36°50' W 076°16'0 0.0
2017-Oct-18 10:30N 36°50' W 076°16'0 0.0
2017-Oct-18 09:49N 36°50' W 076°16'0 0.0
2017-Oct-18 07:02N 36°50' W 076°16'0 0.0
2017-Oct-18 07:00N 36°50' W 076°16'0 0.0
2017-Oct-18 05:46N 36°50' W 076°16'0 0.0
2017-Oct-18 05:30N 36°50' W 076°16'0 0.0
2017-Oct-18 04:57N 36°50' W 076°16'0 0.0
2017-Oct-18 03:00N 36°50' W 076°16'0 0.0
2017-Oct-18 02:28N 36°50' W 076°16'0 0.0
2017-Oct-18 01:49N 36°50' W 076°16'0 0.0
2017-Oct-18 01:04N 36°50' W 076°16'1 0.0
2017-Oct-17 12:06N 36°50' W 076°17'14 5.2
2017-Oct-17 09:28N 36°57' W 076°02'128 4.4
2017-Oct-16 04:43N 38°57' W 075°07'2 7.7
2017-Oct-16 04:24N 38°59' W 075°08'3 8.0
2017-Oct-16 04:00N 39°02' W 075°10'4 8.4
2017-Oct-16 03:29N 39°06' W 075°12'4 8.6
2017-Oct-16 03:00N 39°10' W 075°15'4 8.3
2017-Oct-16 02:30N 39°13' W 075°18'4 7.9
2017-Oct-16 02:00N 39°16' W 075°21'4 7.3
2017-Oct-16 01:30N 39°19' W 075°24'3 6.8
2017-Oct-16 01:00N 39°22' W 075°27'3 6.3
2017-Oct-16 00:30N 39°24' W 075°30'3 6.0
2017-Oct-16 00:00N 39°26' W 075°32'3 5.3
2017-Oct-15 23:30N 39°29' W 075°34'2 4.2
2017-Oct-15 23:00N 39°31' W 075°33'3 5.3
2017-Oct-15 22:30N 39°33' W 075°33'4 7.5
2017-Oct-15 22:01N 39°33' W 075°38'4 8.4
2017-Oct-15 21:31N 39°33' W 075°43'4 8.5
2017-Oct-15 21:01N 39°32' W 075°48'4 8.3
2017-Oct-15 20:30N 39°31' W 075°54'4 8.5
2017-Oct-15 20:00N 39°28' W 075°58'4 8.5
2017-Oct-15 19:30N 39°25' W 076°02'4 7.2
2017-Oct-15 19:01N 39°23' W 076°06'7 8.4
2017-Oct-15 18:08N 39°19' W 076°13'1 8.0
2017-Oct-15 17:58N 39°17' W 076°14'11 7.7
2017-Oct-15 16:34N 39°08' W 076°20'1 7.7
2017-Oct-15 16:29N 39°07' W 076°20'4 7.6
2017-Oct-15 16:00N 39°04' W 076°21'4 7.7
2017-Oct-15 15:30N 38°60' W 076°23'4 7.3
2017-Oct-15 15:00N 38°57' W 076°25'14 7.1
2017-Oct-15 13:05N 38°43' W 076°27'2 7.2
2017-Oct-15 12:49N 38°41' W 076°27'3 7.2
2017-Oct-15 12:28N 38°39' W 076°27'5 7.1
2017-Oct-15 11:50N 38°34' W 076°27'3 7.1
2017-Oct-15 11:28N 38°31' W 076°27'8 7.0
2017-Oct-15 10:22N 38°25' W 076°22'3 6.9
2017-Oct-15 10:00N 38°23' W 076°21'5 6.9
2017-Oct-15 09:14N 38°17' W 076°19'80 6.5
2017-Oct-14 20:49N 36°57' W 076°20'2 6.6
2017-Oct-14 20:28N 36°55' W 076°20'3 6.2
2017-Oct-14 20:01N 36°52' W 076°20'2 4.5
2017-Oct-14 19:31N 36°51' W 076°18'1 2.4
2017-Oct-14 19:01N 36°50' W 076°16'0 0.3
2017-Oct-14 18:30N 36°50' W 076°16'0 0.0
2017-Oct-14 18:01N 36°50' W 076°16'0 0.3
2017-Oct-14 17:29N 36°50' W 076°16'0 0.0
2017-Oct-14 17:00N 36°50' W 076°16'0 0.0
2017-Oct-14 16:25N 36°50' W 076°16'0 0.0
2017-Oct-14 16:00N 36°50' W 076°16'1 2.7
2017-Oct-14 15:31N 36°50' W 076°18'1 2.7
2017-Oct-14 15:01N 36°49' W 076°17'0 0.0
2017-Oct-14 14:31N 36°49' W 076°17'0 0.0
2017-Oct-14 14:00N 36°49' W 076°17'0 0.0
2017-Oct-14 13:31N 36°49' W 076°17'0 0.0
2017-Oct-14 13:00N 36°49' W 076°17'0 0.0
2017-Oct-14 12:31N 36°49' W 076°17'0 0.0
2017-Oct-14 12:01N 36°49' W 076°17'1 2.0
2017-Oct-14 11:30N 36°50' W 076°18'1 1.0
2017-Oct-14 10:09N 36°50' W 076°16'0 0.0
2017-Oct-14 09:55N 36°50' W 076°16'0 0.0
2017-Oct-14 09:30N 36°50' W 076°16'0 0.0
2017-Oct-14 09:00N 36°50' W 076°16'0 0.0
2017-Oct-14 08:30N 36°50' W 076°16'0 0.0
2017-Oct-14 07:58N 36°50' W 076°16'0 0.0
2017-Oct-14 07:31N 36°50' W 076°16'0 0.0
2017-Oct-14 06:58N 36°50' W 076°16'0 0.0
2017-Oct-14 06:28N 36°50' W 076°16'0 0.0
2017-Oct-14 06:00N 36°50' W 076°16'0 0.0
2017-Oct-14 05:26N 36°50' W 076°16'0 0.0
2017-Oct-14 04:57N 36°50' W 076°16'0 0.0
2017-Oct-14 02:49N 36°50' W 076°16'0 0.0
2017-Oct-14 02:27N 36°50' W 076°16'0 0.0
2017-Oct-13 23:17N 36°50' W 076°16'0 0.0
2017-Oct-13 23:00N 36°50' W 076°16'0 0.0
2017-Oct-13 22:30N 36°50' W 076°16'0 0.0
2017-Oct-13 22:00N 36°50' W 076°16'0 0.0
2017-Oct-13 21:30N 36°50' W 076°16'0 0.0
2017-Oct-13 21:00N 36°50' W 076°16'0 0.0
2017-Oct-13 20:30N 36°50' W 076°16'0 0.1
2017-Oct-13 20:01N 36°50' W 076°16'0 0.1
2017-Oct-13 19:31N 36°50' W 076°16'0 0.0
2017-Oct-13 18:34N 36°50' W 076°16'0 0.0
2017-Oct-13 18:28N 36°50' W 076°16'0 0.1
2017-Oct-13 18:01N 36°50' W 076°16'0 0.0
2017-Oct-13 17:30N 36°50' W 076°16'0 0.0
2017-Oct-13 17:01N 36°50' W 076°16'0 0.0
2017-Oct-13 16:31N 36°50' W 076°16'0 0.0
2017-Oct-13 16:01N 36°50' W 076°16'0 0.0
2017-Oct-13 15:30N 36°50' W 076°16'0 0.0
2017-Oct-13 15:01N 36°50' W 076°16'0 0.0
2017-Oct-13 14:31N 36°50' W 076°16'0 0.0
2017-Oct-13 14:01N 36°50' W 076°16'0 0.0
2017-Oct-13 13:31N 36°50' W 076°16'0 0.0
2017-Oct-13 13:01N 36°50' W 076°16'0 0.0
2017-Oct-13 12:31N 36°50' W 076°16'0 0.0
2017-Oct-13 12:01N 36°50' W 076°16'0 0.0
2017-Oct-13 11:31N 36°50' W 076°16'0 0.0
2017-Oct-13 11:01N 36°50' W 076°16'0 0.0
2017-Oct-13 10:30N 36°50' W 076°16'0 0.0
2017-Oct-13 10:01N 36°50' W 076°16'0 0.0
2017-Oct-13 09:31N 36°50' W 076°16'0 0.0
2017-Oct-13 09:01N 36°50' W 076°16'0 0.0
2017-Oct-13 08:31N 36°50' W 076°16'0 0.0
2017-Oct-13 08:01N 36°50' W 076°16'0 0.0
2017-Oct-13 07:31N 36°50' W 076°16'0 0.0
2017-Oct-13 07:00N 36°50' W 076°16'0 0.0
2017-Oct-13 06:31N 36°50' W 076°16'0 0.0
2017-Oct-13 06:01N 36°50' W 076°16'0 0.0
2017-Oct-13 05:31N 36°50' W 076°16'  
Track history (hours):
 
Tides and Currents Weather Stations Pressure Air Temp Water Temp Dewpoint Dewpoint Depression Visibility Wind Speed Wind Dir Waves Ship Positions

Atlantic Dawn

Owner: Atlantic Dawn LLC, Gretna, LA. More information available from US FCC via Universal Licensing System and Coast Guard Vessel Documentation Center.

Last reported at 2017-Oct-23 05:10 UTC. Time now 2017-Oct-23 06:02 UTC.
Position N 39°23' W 074°25'.

Length 30 m; draft 3 m.

Type: Other ship. MMSI: 367486910.

Date/timePositionNaut miles runAvg speedWind from/ knotsBaromVisibWave heightAir tempDewpointWater temp
2017-Oct-23 05:10N 39°23' W 074°25'0 0.0
2017-Oct-23 04:54N 39°23' W 074°25'0 0.0
2017-Oct-23 04:16N 39°23' W 074°25'0 0.0
2017-Oct-23 04:00N 39°23' W 074°25'0 0.0
2017-Oct-23 03:30N 39°23' W 074°25'0 0.0
2017-Oct-23 03:00N 39°23' W 074°25'0 0.0
2017-Oct-23 02:30N 39°23' W 074°25'0 0.0
2017-Oct-23 02:00N 39°23' W 074°25'0 0.0
2017-Oct-23 01:29N 39°23' W 074°25'0 0.0
2017-Oct-23 01:00N 39°23' W 074°25'0 0.0
2017-Oct-23 00:30N 39°23' W 074°25'0 0.0
2017-Oct-23 00:00N 39°23' W 074°25'0 0.0
2017-Oct-22 23:30N 39°23' W 074°25'0 0.0
2017-Oct-22 23:00N 39°23' W 074°25'0 0.0
2017-Oct-22 22:30N 39°23' W 074°25'0 0.0
2017-Oct-22 21:59N 39°23' W 074°25'9 1.3
2017-Oct-22 15:16N 39°16' W 074°33'0 1.7
2017-Oct-22 15:00N 39°16' W 074°32'2 4.8
2017-Oct-22 14:30N 39°18' W 074°30'2 4.9
2017-Oct-22 14:00N 39°19' W 074°27'2 4.9
2017-Oct-22 13:30N 39°20' W 074°24'2 3.7
2017-Oct-22 13:00N 39°22' W 074°25'1 2.2
2017-Oct-22 12:30N 39°23' W 074°25'0 0.5
2017-Oct-22 12:00N 39°23' W 074°26'0 0.1
2017-Oct-22 11:30N 39°23' W 074°26'1 1.2
2017-Oct-22 11:00N 39°23' W 074°25'0 0.2
2017-Oct-22 10:30N 39°23' W 074°25'0 0.0
2017-Oct-22 10:00N 39°23' W 074°25'0 0.0
2017-Oct-22 09:30N 39°23' W 074°25'0 0.0
2017-Oct-22 09:00N 39°23' W 074°25'0 0.0
2017-Oct-22 08:30N 39°23' W 074°25'0 0.0
2017-Oct-22 08:00N 39°23' W 074°25'0 0.0
2017-Oct-22 07:30N 39°23' W 074°25'0 0.0
2017-Oct-22 07:00N 39°23' W 074°25'0 0.0
2017-Oct-22 06:31N 39°23' W 074°25'0 0.0
2017-Oct-22 06:00N 39°23' W 074°25'0 0.0
2017-Oct-22 05:31N 39°23' W 074°25'0 0.0
2017-Oct-22 05:00N 39°23' W 074°25'0 0.0
2017-Oct-22 04:30N 39°23' W 074°25'0 0.0
2017-Oct-22 04:00N 39°23' W 074°25'0 0.0
2017-Oct-22 03:30N 39°23' W 074°25'0 0.0
2017-Oct-22 03:00N 39°23' W 074°25'0 0.0
2017-Oct-22 02:30N 39°23' W 074°25'0 0.0
2017-Oct-22 02:00N 39°23' W 074°25'0 0.0
2017-Oct-22 01:30N 39°23' W 074°25'0 0.0
2017-Oct-22 01:00N 39°23' W 074°25'0 0.0
2017-Oct-22 00:30N 39°23' W 074°25'0 0.5
2017-Oct-22 00:00N 39°23' W 074°25'0 0.3
2017-Oct-21 23:08N 39°23' W 074°25'0 0.0
2017-Oct-21 22:59N 39°23' W 074°25'0 0.0
2017-Oct-21 22:22N 39°23' W 074°25'0 0.0
2017-Oct-21 21:58N 39°23' W 074°25'0 0.5
2017-Oct-21 21:30N 39°23' W 074°25'0 0.8
2017-Oct-21 20:56N 39°22' W 074°26'1 1.3
2017-Oct-21 20:25N 39°23' W 074°25'0 0.0
2017-Oct-21 20:00N 39°23' W 074°25'0 0.0
2017-Oct-21 16:36N 39°23' W 074°25'0 0.1
2017-Oct-21 16:29N 39°23' W 074°25'0 0.2
2017-Oct-21 15:55N 39°23' W 074°25'0 0.0
2017-Oct-21 15:30N 39°23' W 074°25'0 0.0
2017-Oct-21 15:00N 39°23' W 074°25'0 0.0
2017-Oct-21 14:00N 39°23' W 074°25'0 0.0
2017-Oct-21 13:30N 39°23' W 074°25'0 0.0
2017-Oct-21 12:59N 39°23' W 074°25'0 0.0
2017-Oct-21 12:25N 39°23' W 074°25'0 0.1
2017-Oct-21 12:00N 39°23' W 074°25'0 0.1
2017-Oct-21 11:22N 39°23' W 074°25'0 0.0
2017-Oct-21 11:00N 39°23' W 074°25'22 1.1
2017-Oct-20 14:24N 39°04' W 074°38'5 4.3
2017-Oct-20 13:16N 38°60' W 074°42'1 4.3
2017-Oct-20 12:59N 38°59' W 074°42'3 4.4
2017-Oct-20 12:24N 38°57' W 074°44'2 4.4
2017-Oct-20 12:00N 38°55' W 074°46'2 4.3
2017-Oct-20 11:30N 38°53' W 074°47'2 4.3
2017-Oct-20 11:00N 38°52' W 074°49'2 4.3
2017-Oct-20 10:30N 38°50' W 074°50'2 4.2
2017-Oct-20 10:00N 38°48' W 074°52'2 4.5
2017-Oct-20 09:30N 38°47' W 074°54'2 4.7
2017-Oct-20 09:00N 38°45' W 074°56'2 4.6
2017-Oct-20 08:30N 38°43' W 074°57'2 4.3
2017-Oct-20 08:00N 38°41' W 074°58'2 4.3
2017-Oct-20 07:29N 38°38' W 074°58'2 4.2
2017-Oct-20 07:00N 38°36' W 074°58'2 4.2
2017-Oct-20 06:30N 38°34' W 074°58'11 4.3
2017-Oct-20 03:55N 38°23' W 074°58'96 4.5
2017-Oct-19 06:38N 36°57' W 075°54'3 6.0
2017-Oct-19 06:06N 36°57' W 075°57'2 5.4
2017-Oct-19 05:41N 36°57' W 076°00'1 5.4
2017-Oct-19 05:30N 36°57' W 076°01'15 3.6
2017-Oct-19 01:22N 36°57' W 076°20'1 3.8
2017-Oct-19 00:59N 36°55' W 076°20'3 3.5
2017-Oct-19 00:08N 36°53' W 076°20'0 3.4
2017-Oct-19 00:01N 36°52' W 076°20'2 3.4
2017-Oct-18 23:30N 36°51' W 076°18'1 2.2
2017-Oct-18 23:00N 36°50' W 076°17'0 0.8
2017-Oct-18 22:30N 36°50' W 076°16'0 0.5
2017-Oct-18 22:00N 36°50' W 076°16'0 0.0
2017-Oct-18 21:30N 36°50' W 076°16'0 0.0
2017-Oct-18 21:00N 36°50' W 076°16'0 0.0
2017-Oct-18 20:30N 36°50' W 076°16'0 0.0
2017-Oct-18 20:01N 36°50' W 076°16'0 0.0
2017-Oct-18 19:30N 36°50' W 076°16'0 0.0
2017-Oct-18 19:01N 36°50' W 076°16'0 0.0
2017-Oct-18 18:30N 36°50' W 076°16'0 0.0
2017-Oct-18 18:01N 36°50' W 076°16'0 0.0
2017-Oct-18 17:30N 36°50' W 076°16'0 0.0
2017-Oct-18 17:00N 36°50' W 076°16'0 0.0
2017-Oct-18 16:30N 36°50' W 076°16'0 0.0
2017-Oct-18 15:57N 36°50' W 076°16'0 0.0
2017-Oct-18 15:21N 36°50' W 076°16'0 0.0
2017-Oct-18 15:00N 36°50' W 076°16'0 0.0
2017-Oct-18 13:58N 36°50' W 076°16'0 0.0
2017-Oct-18 13:26N 36°50' W 076°16'0 0.0
2017-Oct-18 12:59N 36°50' W 076°16'0 0.0
2017-Oct-18 12:29N 36°50' W 076°16'0 0.2
2017-Oct-18 11:43N 36°50' W 076°16'0 0.0
2017-Oct-18 11:24N 36°50' W 076°16'0 0.0
2017-Oct-18 10:58N 36°50' W 076°16'0 0.0
2017-Oct-18 10:30N 36°50' W 076°16'0 0.0
2017-Oct-18 09:49N 36°50' W 076°16'0 0.0
2017-Oct-18 07:02N 36°50' W 076°16'0 0.0
2017-Oct-18 07:00N 36°50' W 076°16'0 0.0
2017-Oct-18 05:46N 36°50' W 076°16'0 0.0
2017-Oct-18 05:30N 36°50' W 076°16'0 0.0
2017-Oct-18 04:57N 36°50' W 076°16'0 0.0
2017-Oct-18 03:00N 36°50' W 076°16'0 0.0
2017-Oct-18 02:28N 36°50' W 076°16'0 0.0
2017-Oct-18 01:49N 36°50' W 076°16'0 0.0
2017-Oct-18 01:04N 36°50' W 076°16'1 0.0
2017-Oct-17 12:06N 36°50' W 076°17'14 5.2
2017-Oct-17 09:28N 36°57' W 076°02'128 4.4
2017-Oct-16 04:43N 38°57' W 075°07'2 7.7
2017-Oct-16 04:24N 38°59' W 075°08'3 8.0
2017-Oct-16 04:00N 39°02' W 075°10'4 8.4
2017-Oct-16 03:29N 39°06' W 075°12'4 8.6
2017-Oct-16 03:00N 39°10' W 075°15'4 8.3
2017-Oct-16 02:30N 39°13' W 075°18'4 7.9
2017-Oct-16 02:00N 39°16' W 075°21'4 7.3
2017-Oct-16 01:30N 39°19' W 075°24'3 6.8
2017-Oct-16 01:00N 39°22' W 075°27'3 6.3
2017-Oct-16 00:30N 39°24' W 075°30'3 6.0
2017-Oct-16 00:00N 39°26' W 075°32'3 5.3
2017-Oct-15 23:30N 39°29' W 075°34'2 4.2
2017-Oct-15 23:00N 39°31' W 075°33'3 5.3
2017-Oct-15 22:30N 39°33' W 075°33'4 7.5
2017-Oct-15 22:01N 39°33' W 075°38'4 8.4
2017-Oct-15 21:31N 39°33' W 075°43'4 8.5
2017-Oct-15 21:01N 39°32' W 075°48'4 8.3
2017-Oct-15 20:30N 39°31' W 075°54'4 8.5
2017-Oct-15 20:00N 39°28' W 075°58'4 8.5
2017-Oct-15 19:30N 39°25' W 076°02'4 7.2
2017-Oct-15 19:01N 39°23' W 076°06'7 8.4
2017-Oct-15 18:08N 39°19' W 076°13'1 8.0
2017-Oct-15 17:58N 39°17' W 076°14'11 7.7
2017-Oct-15 16:34N 39°08' W 076°20'1 7.7
2017-Oct-15 16:29N 39°07' W 076°20'4 7.6
2017-Oct-15 16:00N 39°04' W 076°21'4 7.7
2017-Oct-15 15:30N 38°60' W 076°23'4 7.3
2017-Oct-15 15:00N 38°57' W 076°25'14 7.1
2017-Oct-15 13:05N 38°43' W 076°27'2 7.2
2017-Oct-15 12:49N 38°41' W 076°27'3 7.2
2017-Oct-15 12:28N 38°39' W 076°27'5 7.1
2017-Oct-15 11:50N 38°34' W 076°27'3 7.1
2017-Oct-15 11:28N 38°31' W 076°27'8 7.0
2017-Oct-15 10:22N 38°25' W 076°22'3 6.9
2017-Oct-15 10:00N 38°23' W 076°21'5 6.9
2017-Oct-15 09:14N 38°17' W 076°19'80 6.5
2017-Oct-14 20:49N 36°57' W 076°20'2 6.6
2017-Oct-14 20:28N 36°55' W 076°20'3 6.2
2017-Oct-14 20:01N 36°52' W 076°20'2 4.5
2017-Oct-14 19:31N 36°51' W 076°18'1 2.4
2017-Oct-14 19:01N 36°50' W 076°16'0 0.3
2017-Oct-14 18:30N 36°50' W 076°16'0 0.0
2017-Oct-14 18:01N 36°50' W 076°16'0 0.3
2017-Oct-14 17:29N 36°50' W 076°16'0 0.0
2017-Oct-14 17:00N 36°50' W 076°16'0 0.0
2017-Oct-14 16:25N 36°50' W 076°16'0 0.0
2017-Oct-14 16:00N 36°50' W 076°16'1 2.7
2017-Oct-14 15:31N 36°50' W 076°18'1 2.7
2017-Oct-14 15:01N 36°49' W 076°17'0 0.0
2017-Oct-14 14:31N 36°49' W 076°17'0 0.0
2017-Oct-14 14:00N 36°49' W 076°17'0 0.0
2017-Oct-14 13:31N 36°49' W 076°17'0 0.0
2017-Oct-14 13:00N 36°49' W 076°17'0 0.0
2017-Oct-14 12:31N 36°49' W 076°17'0 0.0
2017-Oct-14 12:01N 36°49' W 076°17'1 2.0
2017-Oct-14 11:30N 36°50' W 076°18'1 1.0
2017-Oct-14 10:09N 36°50' W 076°16'0 0.0
2017-Oct-14 09:55N 36°50' W 076°16'0 0.0
2017-Oct-14 09:30N 36°50' W 076°16'0 0.0
2017-Oct-14 09:00N 36°50' W 076°16'0 0.0
2017-Oct-14 08:30N 36°50' W 076°16'0 0.0
2017-Oct-14 07:58N 36°50' W 076°16'0 0.0
2017-Oct-14 07:31N 36°50' W 076°16'0 0.0
2017-Oct-14 06:58N 36°50' W 076°16'0 0.0
2017-Oct-14 06:28N 36°50' W 076°16'0 0.0
2017-Oct-14 06:00N 36°50' W 076°16'0 0.0
2017-Oct-14 05:26N 36°50' W 076°16'0 0.0
2017-Oct-14 04:57N 36°50' W 076°16'0 0.0
2017-Oct-14 02:49N 36°50' W 076°16'0 0.0
2017-Oct-14 02:27N 36°50' W 076°16'0 0.0
2017-Oct-13 23:17N 36°50' W 076°16'0 0.0
2017-Oct-13 23:00N 36°50' W 076°16'0 0.0
2017-Oct-13 22:30N 36°50' W 076°16'0 0.0
2017-Oct-13 22:00N 36°50' W 076°16'0 0.0
2017-Oct-13 21:30N 36°50' W 076°16'0 0.0
2017-Oct-13 21:00N 36°50' W 076°16'0 0.0
2017-Oct-13 20:30N 36°50' W 076°16'0 0.1
2017-Oct-13 20:01N 36°50' W 076°16'0 0.1
2017-Oct-13 19:31N 36°50' W 076°16'0 0.0
2017-Oct-13 18:34N 36°50' W 076°16'0 0.0
2017-Oct-13 18:28N 36°50' W 076°16'0 0.1
2017-Oct-13 18:01N 36°50' W 076°16'0 0.0
2017-Oct-13 17:30N 36°50' W 076°16'0 0.0
2017-Oct-13 17:01N 36°50' W 076°16'0 0.0
2017-Oct-13 16:31N 36°50' W 076°16'0 0.0
2017-Oct-13 16:01N 36°50' W 076°16'0 0.0
2017-Oct-13 15:30N 36°50' W 076°16'0 0.0
2017-Oct-13 15:01N 36°50' W 076°16'0 0.0
2017-Oct-13 14:31N 36°50' W 076°16'0 0.0
2017-Oct-13 14:01N 36°50' W 076°16'0 0.0
2017-Oct-13 13:31N 36°50' W 076°16'0 0.0
2017-Oct-13 13:01N 36°50' W 076°16'0 0.0
2017-Oct-13 12:31N 36°50' W 076°16'0 0.0
2017-Oct-13 12:01N 36°50' W 076°16'0 0.0
2017-Oct-13 11:31N 36°50' W 076°16'0 0.0
2017-Oct-13 11:01N 36°50' W 076°16'0 0.0
2017-Oct-13 10:30N 36°50' W 076°16'0 0.0
2017-Oct-13 10:01N 36°50' W 076°16'0 0.0
2017-Oct-13 09:31N 36°50' W 076°16'0 0.0
2017-Oct-13 09:01N 36°50' W 076°16'0 0.0
2017-Oct-13 08:31N 36°50' W 076°16'0 0.0
2017-Oct-13 08:01N 36°50' W 076°16'0 0.0
2017-Oct-13 07:31N 36°50' W 076°16'0 0.0
2017-Oct-13 07:00N 36°50' W 076°16'0 0.0
2017-Oct-13 06:31N 36°50' W 076°16'0 0.0
2017-Oct-13 06:01N 36°50' W 076°16'0 0.0
2017-Oct-13 05:31N 36°50' W 076°16'  

Dump ship's entire track history